OIBS  Sirri Island  Airport

Iran

Add Bookmark
ICAO OIBS
IATA SXI
Type Airport
Status Operational
Latitude
25° 54' 32" N
25.908899
Longitude
54° 32' 21" E
54.539398
Local (DST + 5) UTC (GMT + 4)
Feb 11, 2016 09:50 Feb 11, 2016 06:20
Sunrise-Sunset Local UTC
Begin Civil Twilight 06:05 02:35
Sunrise 06:28 02:58
Sunset 05:43 14:13
End Civil Twilight 06:06 14:36
VFR
VFR
MVFR
MVFR
IFR
IFR
LIFR
LIFR
Unknown
Unavailable

Current Weather

METAR Observed VFR
OIBS 110600Z 08008KT 9999 FEW035 22/13 Q1017 Thu, Feb 11, 2016 @ 06:00 UTC
(20 Minutes ago)
Visual Flight Rules
Wind Visibility Clouds Conditions
080° at 8 knots (15 kph) 10 km or more
  • Few at 3,500 ft AGL
  • No significant weather
Temperatures Readings Precipitation
Current Temp
22°C
72°F
Dewpoint
13°C
55°F
Humidity 57%
Altimeter 30.03" Hg
Sea Level Pressure 1,017 mb
Field Elevation
14 m
46 ft
None Recorded

Additional weather within a 92.6km radius of OIBS

Map ICAO Location
OIBA 49.4km E (094°)
OIBL 74.8km N/NE (022°)
OIBK 88.5km NW (321°)
VFR
VFR
MVFR
MVFR
IFR
IFR
LIFR
LIFR
Unknown
Unavailable
-
-

CheckWX.com is intended as a tool to help pilots better visualize weather data. It is not intended as a substitute for an official weather briefing obtained from a Flight Service Station. CheckWX.com does not meet the FAA requirements for an official pre-flight weather briefing. Therefore, it's important that pilots still call and obtain an official FSS pre-flight weather briefing.

© 2007-2016 CheckWX.com
06:20:35 UTC